createdAt,value
2017-09-25T00:00:38.486Z,13.80
2017-09-25T00:03:04.688Z,13.90
2017-09-25T00:05:31.612Z,14.00
2017-09-25T00:07:57.836Z,14.00
2017-09-25T00:10:24.093Z,14.00
2017-09-25T00:12:51.039Z,13.80
2017-09-25T00:15:18.017Z,13.80
2017-09-25T00:17:44.259Z,13.80
2017-09-25T00:20:10.503Z,13.70
2017-09-25T00:22:36.823Z,13.50
2017-09-25T00:25:03.047Z,13.30
2017-09-25T00:27:29.260Z,13.30
2017-09-25T00:29:55.517Z,13.20
2017-09-25T00:32:21.719Z,13.20
2017-09-25T00:34:49.799Z,13.20
2017-09-25T00:37:16.077Z,13.20
2017-09-25T00:39:42.264Z,13.10
2017-09-25T00:42:08.501Z,13.10
2017-09-25T00:44:34.734Z,13.10
2017-09-25T00:47:00.972Z,13.10
2017-09-25T00:49:27.180Z,13.20
2017-09-25T00:51:53.513Z,13.20
2017-09-25T00:54:22.507Z,13.20
2017-09-25T00:56:48.778Z,13.20
2017-09-25T00:59:27.026Z,13.10
2017-09-25T01:02:05.709Z,13.10
2017-09-25T01:04:58.880Z,13.00
2017-09-25T01:07:25.822Z,13.10
2017-09-25T01:09:52.000Z,13.10
2017-09-25T01:12:18.304Z,13.10
2017-09-25T01:14:44.506Z,13.10
2017-09-25T01:17:11.466Z,13.10
2017-09-25T01:19:38.498Z,13.10
2017-09-25T01:22:05.464Z,13.10
2017-09-25T01:24:32.993Z,13.00
2017-09-25T01:26:59.281Z,13.00
2017-09-25T01:29:25.477Z,13.10
2017-09-25T01:31:52.433Z,13.20
2017-09-25T01:34:18.703Z,13.20
2017-09-25T01:36:44.949Z,13.30
2017-09-25T01:39:11.137Z,13.30
2017-09-25T01:41:37.375Z,13.30
2017-09-25T01:44:03.561Z,13.40
2017-09-25T01:46:30.552Z,13.50
2017-09-25T01:48:56.735Z,13.50
2017-09-25T01:51:23.795Z,13.50
2017-09-25T01:53:49.977Z,13.50
2017-09-25T01:56:16.247Z,13.40
2017-09-25T01:58:43.190Z,13.00
2017-09-25T02:01:10.124Z,13.10
2017-09-25T02:03:37.083Z,13.20
2017-09-25T02:06:04.032Z,13.20
2017-09-25T02:08:30.962Z,13.30
2017-09-25T02:10:57.952Z,13.20
2017-09-25T02:13:24.226Z,13.20
2017-09-25T02:15:50.454Z,13.20
2017-09-25T02:18:16.687Z,13.10
2017-09-25T02:20:42.909Z,13.30
2017-09-25T02:23:09.109Z,13.30
2017-09-25T02:25:35.319Z,13.40
2017-09-25T02:28:01.571Z,13.40
2017-09-25T02:30:27.830Z,13.50
2017-09-25T02:32:54.115Z,13.50
2017-09-25T02:35:20.297Z,13.50
2017-09-25T02:37:46.482Z,13.40
2017-09-25T02:40:13.457Z,13.40
2017-09-25T02:42:39.651Z,13.40
2017-09-25T02:45:05.864Z,13.50
2017-09-25T02:47:32.123Z,13.50
2017-09-25T02:49:58.314Z,13.60
2017-09-25T02:52:24.504Z,13.60
2017-09-25T02:54:50.752Z,13.60
2017-09-25T02:57:17.736Z,13.60
2017-09-25T02:59:43.957Z,13.60
2017-09-25T03:02:10.249Z,13.60
2017-09-25T03:04:37.192Z,13.70
2017-09-25T03:07:04.112Z,13.70
2017-09-25T03:09:30.380Z,13.60
2017-09-25T03:11:57.317Z,13.60
2017-09-25T03:14:24.249Z,13.70
2017-09-25T03:16:50.470Z,13.70
2017-09-25T03:19:16.682Z,13.70
2017-09-25T03:21:42.872Z,13.70
2017-09-25T03:24:09.128Z,13.70
2017-09-25T03:26:35.340Z,13.70
2017-09-25T03:29:01.542Z,13.70
2017-09-25T03:31:28.477Z,13.80
2017-09-25T03:33:55.406Z,13.80
2017-09-25T03:36:21.591Z,13.80
2017-09-25T03:38:47.849Z,13.70
2017-09-25T03:41:14.115Z,13.70
2017-09-25T03:43:41.081Z,13.70
2017-09-25T03:46:07.335Z,13.70
2017-09-25T03:48:33.514Z,13.70
2017-09-25T03:51:00.463Z,13.80
2017-09-25T03:53:27.482Z,13.80
2017-09-25T03:55:53.702Z,13.70
2017-09-25T03:58:20.677Z,13.60
2017-09-25T04:00:47.697Z,13.70
2017-09-25T04:03:13.936Z,13.60
2017-09-25T04:05:40.124Z,13.60
2017-09-25T04:08:06.340Z,13.60
2017-09-25T04:10:32.566Z,13.60
2017-09-25T04:12:58.780Z,13.50
2017-09-25T04:15:25.743Z,13.60
2017-09-25T04:17:51.926Z,13.60
2017-09-25T04:20:18.130Z,13.40
2017-09-25T04:22:44.380Z,13.30
2017-09-25T04:25:10.648Z,13.30
2017-09-25T04:27:36.890Z,13.30
2017-09-25T04:30:03.106Z,13.30
2017-09-25T04:32:29.350Z,13.40
2017-09-25T04:34:55.547Z,13.40
2017-09-25T04:37:22.526Z,13.40
2017-09-25T04:39:48.695Z,13.40
2017-09-25T04:42:15.476Z,13.50
2017-09-25T04:44:41.684Z,13.50
2017-09-25T04:47:07.863Z,13.60
2017-09-25T04:49:34.057Z,13.70
2017-09-25T04:52:00.287Z,13.70
2017-09-25T04:54:27.229Z,13.80
2017-09-25T04:56:54.176Z,13.80
2017-09-25T04:59:21.135Z,13.70
2017-09-25T05:01:48.317Z,13.70
2017-09-25T05:04:14.515Z,13.60
2017-09-25T05:06:40.765Z,13.70
2017-09-25T05:09:06.970Z,13.70
2017-09-25T05:11:33.143Z,13.70
2017-09-25T05:13:59.368Z,13.80
2017-09-25T05:16:25.617Z,13.70
2017-09-25T05:18:51.792Z,13.60
2017-09-25T05:21:17.993Z,13.70
2017-09-25T05:23:45.006Z,13.60
2017-09-25T05:26:11.225Z,13.60
2017-09-25T05:28:37.423Z,13.70
2017-09-25T05:31:03.639Z,13.60
2017-09-25T05:33:29.818Z,13.70
2017-09-25T05:35:56.068Z,13.70
2017-09-25T05:38:22.261Z,13.80
2017-09-25T05:40:48.488Z,13.80
2017-09-25T05:43:15.049Z,13.80
2017-09-25T05:45:41.243Z,13.90
2017-09-25T05:48:07.460Z,13.90
2017-09-25T05:50:33.682Z,13.80
2017-09-25T05:52:59.895Z,13.90
2017-09-25T05:55:26.874Z,14.00
2017-09-25T05:57:53.171Z,13.90
2017-09-25T06:00:20.129Z,13.90
2017-09-25T06:02:46.316Z,13.90
2017-09-25T06:05:12.559Z,13.90
2017-09-25T06:07:39.519Z,13.90
2017-09-25T06:10:06.474Z,13.90
2017-09-25T06:12:32.727Z,13.90
2017-09-25T06:14:58.930Z,13.90
2017-09-25T06:17:25.168Z,13.90
2017-09-25T06:19:51.380Z,13.90
2017-09-25T06:22:18.329Z,13.80
2017-09-25T06:24:44.517Z,13.80
2017-09-25T06:27:10.843Z,13.90
2017-09-25T06:29:37.033Z,13.90
2017-09-25T06:32:03.212Z,14.10
2017-09-25T06:34:29.475Z,14.10
2017-09-25T06:36:55.705Z,14.10
2017-09-25T06:39:22.647Z,14.10
2017-09-25T06:41:49.627Z,14.20
2017-09-25T06:44:15.870Z,14.20
2017-09-25T06:46:42.061Z,14.20
2017-09-25T06:49:08.311Z,14.20
2017-09-25T06:51:34.572Z,14.20
2017-09-25T06:54:00.831Z,14.20
2017-09-25T06:56:27.828Z,14.30
2017-09-25T06:58:54.102Z,14.30
2017-09-25T07:01:21.078Z,14.30
2017-09-25T07:03:47.278Z,14.30
2017-09-25T07:06:15.200Z,14.40
2017-09-25T07:08:41.372Z,14.40
2017-09-25T07:11:08.363Z,14.50
2017-09-25T07:13:34.597Z,14.50
2017-09-25T07:16:00.833Z,14.60
2017-09-25T07:18:27.056Z,14.60
2017-09-25T07:20:53.283Z,14.40
2017-09-25T07:23:19.546Z,14.50
2017-09-25T07:25:45.941Z,14.70
2017-09-25T07:28:12.136Z,14.70
2017-09-25T07:30:39.132Z,14.70
2017-09-25T07:33:05.373Z,14.70
2017-09-25T07:35:31.604Z,14.70
2017-09-25T07:37:57.808Z,14.80
2017-09-25T07:40:24.046Z,14.90
2017-09-25T07:42:50.251Z,14.90
2017-09-25T07:45:16.445Z,14.90
2017-09-25T07:47:43.463Z,14.70
2017-09-25T07:50:09.678Z,14.70
2017-09-25T07:52:35.870Z,14.50
2017-09-25T07:55:02.425Z,14.40
2017-09-25T07:57:28.685Z,14.60
2017-09-25T07:59:54.905Z,14.80
2017-09-25T08:02:21.159Z,14.90
2017-09-25T08:04:47.393Z,15.00
2017-09-25T08:07:14.343Z,15.30
2017-09-25T08:09:41.332Z,15.50
2017-09-25T08:12:07.587Z,15.60
2017-09-25T08:14:33.756Z,15.60
2017-09-25T08:17:00.715Z,15.80
2017-09-25T08:19:26.923Z,15.70
2017-09-25T08:21:53.871Z,15.90
2017-09-25T08:24:20.889Z,16.10
2017-09-25T08:26:47.108Z,16.00
2017-09-25T08:29:13.301Z,16.20
2017-09-25T08:31:39.670Z,16.60
2017-09-25T08:34:05.879Z,16.70
2017-09-25T08:36:32.074Z,17.10
2017-09-25T08:38:59.072Z,16.90
2017-09-25T08:41:25.281Z,16.90
2017-09-25T08:43:51.530Z,16.60
2017-09-25T08:46:17.947Z,16.70
2017-09-25T08:48:44.300Z,16.70
2017-09-25T08:51:10.485Z,16.80
2017-09-25T08:53:36.758Z,16.80
2017-09-25T08:56:02.998Z,16.80
2017-09-25T08:58:29.220Z,16.80
2017-09-25T09:00:55.420Z,16.70
2017-09-25T09:03:21.624Z,16.50
2017-09-25T09:05:47.836Z,16.40
2017-09-25T09:08:27.262Z,16.40
2017-09-25T09:10:53.438Z,16.40
2017-09-25T09:13:19.692Z,16.10
2017-09-25T09:15:46.332Z,16.20
2017-09-25T09:18:12.524Z,16.10
2017-09-25T09:20:38.876Z,16.30
2017-09-25T09:23:05.446Z,16.30
2017-09-25T09:25:31.615Z,16.40
2017-09-25T09:27:57.825Z,16.50
2017-09-25T09:30:24.828Z,16.30
2017-09-25T09:32:51.010Z,16.30
2017-09-25T09:35:17.169Z,16.40
2017-09-25T09:37:43.385Z,16.50
2017-09-25T09:40:09.583Z,16.10
2017-09-25T09:42:36.523Z,16.30
2017-09-25T09:45:02.810Z,16.30
2017-09-25T09:47:29.032Z,16.10
2017-09-25T09:49:55.229Z,16.20
2017-09-25T09:52:21.456Z,16.20
2017-09-25T09:54:47.714Z,15.90
2017-09-25T09:57:13.921Z,16.20
2017-09-25T09:59:40.148Z,16.30
2017-09-25T10:02:06.379Z,16.30
2017-09-25T10:04:32.569Z,16.40
2017-09-25T10:06:58.859Z,16.40
2017-09-25T10:09:25.078Z,16.60
2017-09-25T10:11:51.276Z,16.90
2017-09-25T10:14:18.363Z,16.80
2017-09-25T10:16:44.592Z,16.80
2017-09-25T10:19:10.797Z,16.80
2017-09-25T10:21:37.080Z,16.60
2017-09-25T10:24:03.298Z,16.70
2017-09-25T10:26:29.510Z,16.90
2017-09-25T10:28:55.825Z,16.60
2017-09-25T10:31:22.006Z,16.60
2017-09-25T10:33:48.194Z,16.70
2017-09-25T10:36:14.424Z,16.90
2017-09-25T10:38:40.695Z,16.70
2017-09-25T10:41:06.919Z,16.70
2017-09-25T10:43:33.133Z,16.90
2017-09-25T10:45:59.353Z,17.20
2017-09-25T10:48:25.550Z,17.40
2017-09-25T10:50:51.787Z,17.60
2017-09-25T10:53:18.073Z,17.40
2017-09-25T10:55:44.988Z,17.50
2017-09-25T10:58:11.225Z,17.40
2017-09-25T11:00:37.463Z,17.50
2017-09-25T11:03:03.629Z,17.50
2017-09-25T11:05:30.018Z,17.50
2017-09-25T11:07:56.306Z,17.90
2017-09-25T11:10:22.529Z,17.80
2017-09-25T11:12:48.739Z,18.00
2017-09-25T11:15:15.916Z,18.30
2017-09-25T11:17:42.156Z,18.30
2017-09-25T11:20:08.400Z,18.60
2017-09-25T11:22:42.343Z,18.90
2017-09-25T11:25:09.279Z,19.40
2017-09-25T11:27:35.539Z,19.40
2017-09-25T11:30:01.837Z,20.00
2017-09-25T11:32:28.786Z,22.20
2017-09-25T11:34:54.992Z,22.10
2017-09-25T11:37:21.250Z,22.30
2017-09-25T11:39:48.228Z,21.90
2017-09-25T11:42:16.476Z,21.80
2017-09-25T11:44:43.458Z,23.10
2017-09-25T11:47:09.807Z,23.10
2017-09-25T11:49:36.016Z,22.80
2017-09-25T11:52:02.312Z,21.80
2017-09-25T11:54:29.309Z,21.00
2017-09-25T11:56:55.683Z,21.00
2017-09-25T11:59:21.911Z,19.80
2017-09-25T12:01:48.103Z,20.10
2017-09-25T12:04:14.451Z,20.50
2017-09-25T12:06:47.692Z,20.30
2017-09-25T12:09:13.922Z,20.30
2017-09-25T12:11:40.154Z,20.80
2017-09-25T12:14:06.364Z,21.40
2017-09-25T12:16:33.377Z,22.10
2017-09-25T12:18:59.642Z,22.00
2017-09-25T12:21:26.574Z,21.30
2017-09-25T12:23:52.830Z,21.30
2017-09-25T12:26:19.037Z,21.10
2017-09-25T12:28:46.843Z,20.90
2017-09-25T12:31:13.203Z,20.90
2017-09-25T12:33:39.393Z,21.00
2017-09-25T12:36:05.582Z,20.00
2017-09-25T12:38:31.811Z,20.10
2017-09-25T12:40:58.203Z,20.10
2017-09-25T12:43:24.432Z,19.70
2017-09-25T12:45:50.725Z,19.80
2017-09-25T12:48:17.705Z,19.30
2017-09-25T12:50:43.899Z,19.30
2017-09-25T12:53:10.924Z,19.10
2017-09-25T12:55:37.115Z,19.00
2017-09-25T12:58:03.377Z,19.30
2017-09-25T13:00:29.611Z,19.40
2017-09-25T13:02:56.579Z,18.50
2017-09-25T13:05:23.584Z,18.70
2017-09-25T13:07:49.938Z,18.60
2017-09-25T13:10:16.168Z,18.30
2017-09-25T13:12:42.546Z,18.30
2017-09-25T13:15:08.952Z,18.40
2017-09-25T13:17:35.932Z,17.60
2017-09-25T13:20:02.146Z,17.60
2017-09-25T13:22:28.370Z,17.60
2017-09-25T13:24:54.668Z,17.60
2017-09-25T13:27:22.711Z,17.50
2017-09-25T13:29:48.994Z,17.20
2017-09-25T13:32:15.322Z,17.30
2017-09-25T13:34:41.590Z,17.50
2017-09-25T13:37:07.863Z,17.40
2017-09-25T13:39:34.868Z,17.60
2017-09-25T13:42:01.304Z,17.60
2017-09-25T13:44:27.507Z,17.40
2017-09-25T13:46:53.739Z,17.50
2017-09-25T13:49:20.000Z,17.30
2017-09-25T13:51:46.235Z,17.40
2017-09-25T13:54:14.403Z,17.10
2017-09-25T13:56:40.636Z,17.00
2017-09-25T14:04:11.593Z,16.90
2017-09-25T14:06:37.855Z,16.90
2017-09-25T14:09:04.114Z,16.70
2017-09-25T14:11:30.334Z,16.60
2017-09-25T14:13:57.293Z,16.30
2017-09-25T14:16:23.495Z,16.30
2017-09-25T14:18:49.675Z,16.40
2017-09-25T14:21:15.900Z,16.20
2017-09-25T14:23:42.117Z,16.30
2017-09-25T14:26:08.383Z,16.30
2017-09-25T14:28:34.653Z,16.40
2017-09-25T14:31:01.617Z,16.60
2017-09-25T14:33:27.937Z,16.60
2017-09-25T14:35:54.882Z,17.50
2017-09-25T14:38:21.858Z,17.90
2017-09-25T14:40:48.121Z,17.90
2017-09-25T14:43:14.364Z,18.00
2017-09-25T14:45:40.606Z,18.10
2017-09-25T14:48:07.568Z,18.30
2017-09-25T14:53:06.747Z,18.30
2017-09-25T14:55:32.979Z,18.20
2017-09-25T14:57:59.296Z,18.10
2017-09-25T15:00:25.529Z,18.50
2017-09-25T15:02:51.749Z,18.90
2017-09-25T15:05:18.030Z,19.20
2017-09-25T15:07:44.357Z,19.40
2017-09-25T15:10:11.338Z,20.10
2017-09-25T15:12:37.564Z,20.10
2017-09-25T15:15:03.782Z,19.80
2017-09-25T15:17:29.985Z,19.70
2017-09-25T15:19:57.095Z,19.10
2017-09-25T15:22:30.229Z,19.10
2017-09-25T15:24:57.195Z,18.80
2017-09-25T15:27:23.398Z,18.80
2017-09-25T15:29:50.379Z,18.70
2017-09-25T15:32:16.593Z,18.70
2017-09-25T15:34:42.849Z,19.30
2017-09-25T15:37:09.078Z,19.70
2017-09-25T15:39:35.280Z,19.30
2017-09-25T15:42:01.509Z,18.80
2017-09-25T15:44:27.743Z,18.50
2017-09-25T15:46:53.971Z,18.30
2017-09-25T15:49:20.185Z,18.00
2017-09-25T15:51:46.405Z,17.90
2017-09-25T15:54:13.328Z,17.30
2017-09-25T15:56:39.543Z,17.30
2017-09-25T15:59:05.727Z,17.10
2017-09-25T16:01:31.925Z,17.10
2017-09-25T16:03:58.975Z,17.20
2017-09-25T16:06:25.902Z,17.00
2017-09-25T16:08:52.109Z,17.00
2017-09-25T16:11:18.340Z,16.90
2017-09-25T16:13:44.688Z,16.90
2017-09-25T16:16:10.897Z,16.80
2017-09-25T16:18:37.087Z,16.90
2017-09-25T16:21:03.313Z,16.80
2017-09-25T16:23:29.478Z,16.70
2017-09-25T16:25:55.680Z,16.60
2017-09-25T16:28:21.878Z,16.40
2017-09-25T16:30:48.818Z,16.20
2017-09-25T16:33:15.940Z,16.20
2017-09-25T16:35:42.142Z,16.10
2017-09-25T16:38:08.356Z,16.10
2017-09-25T16:40:34.572Z,16.10
2017-09-25T16:43:00.797Z,15.90
2017-09-25T16:45:27.732Z,15.80
2017-09-25T16:47:54.728Z,15.80
2017-09-25T16:50:20.932Z,15.70
2017-09-25T16:52:47.136Z,15.80
2017-09-25T16:55:14.412Z,15.70
2017-09-25T16:57:40.637Z,15.70
2017-09-25T17:00:06.868Z,15.70
2017-09-25T17:02:33.126Z,15.60
2017-09-25T17:04:59.336Z,15.60
2017-09-25T17:07:25.573Z,15.50
2017-09-25T17:09:51.868Z,15.40
2017-09-25T17:12:18.822Z,15.40
2017-09-25T17:14:45.104Z,15.40
2017-09-25T17:17:11.347Z,15.40
2017-09-25T17:19:37.550Z,15.50
2017-09-25T17:22:03.900Z,15.40
2017-09-25T17:24:30.153Z,15.30
2017-09-25T17:26:57.094Z,15.10
2017-09-25T17:29:23.355Z,15.00
2017-09-25T17:31:49.632Z,15.10
2017-09-25T17:34:16.193Z,15.00
2017-09-25T17:36:43.134Z,14.90
2017-09-25T17:39:10.216Z,14.80
2017-09-25T17:41:36.477Z,14.80
2017-09-25T17:44:02.706Z,14.70
2017-09-25T17:46:28.944Z,14.70
2017-09-25T17:48:55.135Z,14.60
2017-09-25T17:51:21.355Z,14.50
2017-09-25T17:53:47.596Z,14.60
2017-09-25T17:56:13.801Z,14.40
2017-09-25T17:58:40.805Z,14.40
2017-09-25T18:01:07.020Z,14.40
2017-09-25T18:03:33.297Z,14.50
2017-09-25T18:06:00.284Z,14.40
2017-09-25T18:08:26.519Z,14.50
2017-09-25T18:10:52.765Z,14.40
2017-09-25T18:13:19.001Z,14.40
2017-09-25T18:15:45.251Z,14.50
2017-09-25T18:18:11.472Z,14.50
2017-09-25T18:20:37.657Z,14.50
2017-09-25T18:25:55.473Z,14.50
2017-09-25T18:28:22.458Z,14.50
2017-09-25T18:30:49.150Z,14.50
2017-09-25T18:33:15.312Z,14.50
2017-09-25T18:35:41.594Z,14.50
2017-09-25T18:38:07.813Z,14.50
2017-09-25T18:40:34.057Z,14.40
2017-09-25T18:43:00.330Z,14.30
2017-09-25T18:45:26.586Z,14.20
2017-09-25T18:47:52.877Z,14.30
2017-09-25T18:50:19.382Z,14.30
2017-09-25T18:52:45.595Z,14.30
2017-09-25T18:55:11.812Z,14.20
2017-09-25T18:57:38.024Z,14.20
2017-09-25T19:00:04.268Z,14.10
2017-09-25T19:02:30.480Z,14.10
2017-09-25T19:04:56.760Z,14.10
2017-09-25T19:07:23.020Z,14.20
2017-09-25T19:09:49.218Z,14.20
2017-09-25T19:12:17.512Z,14.20
2017-09-25T19:14:44.470Z,14.20
2017-09-25T19:17:10.701Z,14.20
2017-09-25T19:19:37.002Z,14.10
2017-09-25T19:22:03.301Z,14.10
2017-09-25T19:24:29.630Z,14.10
2017-09-25T19:26:55.802Z,14.00
2017-09-25T19:29:22.757Z,13.80
2017-09-25T19:31:49.005Z,13.80
2017-09-25T19:34:15.288Z,13.80
2017-09-25T19:36:41.525Z,13.80
2017-09-25T19:39:07.730Z,13.70
2017-09-25T19:41:33.995Z,13.70
2017-09-25T19:44:00.925Z,13.60
2017-09-25T19:46:27.161Z,13.60
2017-09-25T19:48:55.013Z,13.50
2017-09-25T19:51:21.225Z,13.50
2017-09-25T19:53:53.706Z,13.50
2017-09-25T19:56:21.878Z,13.50
2017-09-25T19:58:48.132Z,13.40
2017-09-25T20:01:14.450Z,13.40
2017-09-25T20:03:40.741Z,13.40
2017-09-25T20:06:07.046Z,13.40
2017-09-25T20:08:33.306Z,13.40
2017-09-25T20:10:59.606Z,13.40
2017-09-25T20:13:25.865Z,13.40
2017-09-25T20:19:05.627Z,13.30
2017-09-25T20:21:31.864Z,13.40
2017-09-25T20:23:58.162Z,13.40
2017-09-25T20:26:24.379Z,13.40
2017-09-25T20:28:51.408Z,13.30
2017-09-25T20:31:17.824Z,13.30
2017-09-25T20:33:44.041Z,13.30
2017-09-25T20:36:10.302Z,13.30
2017-09-25T20:38:37.323Z,13.30
2017-09-25T20:41:08.505Z,13.30
2017-09-25T20:43:36.543Z,13.30
2017-09-25T20:46:02.775Z,13.30
2017-09-25T20:48:28.997Z,13.30
2017-09-25T20:50:55.311Z,13.40
2017-09-25T20:53:21.546Z,13.40
2017-09-25T20:55:47.751Z,13.30
2017-09-25T20:58:14.465Z,13.30
2017-09-25T21:00:40.832Z,13.30
2017-09-25T21:03:07.104Z,13.30
2017-09-25T21:05:34.151Z,13.30
2017-09-25T21:08:00.411Z,13.30
2017-09-25T21:10:26.653Z,13.20
2017-09-25T21:12:52.951Z,13.20
2017-09-25T21:15:19.270Z,13.20
2017-09-25T21:17:45.543Z,13.20
2017-09-25T21:20:11.810Z,13.20
2017-09-25T21:22:38.083Z,13.20
2017-09-25T21:25:05.081Z,13.20
2017-09-25T21:27:33.291Z,13.10
2017-09-25T21:29:59.600Z,13.20
2017-09-25T21:32:25.848Z,13.20
2017-09-25T21:34:52.490Z,13.30
2017-09-25T21:37:18.713Z,13.30
2017-09-25T21:39:45.090Z,13.30
2017-09-25T21:42:11.439Z,13.30
2017-09-25T21:44:37.747Z,13.30
2017-09-25T21:47:05.155Z,13.30
2017-09-25T21:49:31.435Z,13.30
2017-09-25T21:51:58.817Z,13.30
2017-09-25T21:54:25.223Z,13.40
2017-09-25T21:56:51.495Z,13.30
2017-09-25T21:59:17.759Z,13.30
2017-09-25T22:01:45.060Z,13.30
2017-09-25T22:04:11.343Z,13.30
2017-09-25T22:06:37.616Z,13.40
2017-09-25T22:09:03.946Z,13.30
2017-09-25T22:11:30.422Z,13.30
2017-09-25T22:13:56.692Z,13.30
2017-09-25T22:16:23.021Z,13.30
2017-09-25T22:18:49.344Z,13.30
2017-09-25T22:21:16.300Z,13.30
2017-09-25T22:23:42.580Z,13.30
2017-09-25T22:26:08.852Z,13.30
2017-09-25T22:28:35.108Z,13.30
2017-09-25T22:31:01.376Z,13.20
2017-09-25T22:33:27.619Z,13.20
2017-09-25T22:35:53.909Z,13.20
2017-09-25T22:38:20.129Z,13.10
2017-09-25T22:40:46.330Z,13.00
2017-09-25T22:43:15.157Z,13.00
2017-09-25T22:45:41.451Z,13.00
2017-09-25T22:48:08.519Z,12.90
2017-09-25T22:50:34.830Z,12.90
2017-09-25T22:53:01.178Z,12.90
2017-09-25T22:55:27.423Z,12.90
2017-09-25T22:57:53.710Z,12.90
2017-09-25T23:00:19.971Z,12.90
2017-09-25T23:02:46.220Z,12.80
2017-09-25T23:05:14.344Z,12.90
2017-09-25T23:07:40.650Z,12.90
2017-09-25T23:10:06.926Z,12.90
2017-09-25T23:12:34.834Z,13.00
2017-09-25T23:15:01.033Z,12.90
2017-09-25T23:17:27.299Z,13.00
2017-09-25T23:19:53.591Z,13.00
2017-09-25T23:22:19.851Z,13.10
2017-09-25T23:24:46.089Z,13.00
2017-09-25T23:27:12.319Z,13.10
2017-09-25T23:29:49.529Z,13.10
2017-09-25T23:32:15.732Z,13.10
2017-09-25T23:34:41.950Z,13.00
2017-09-25T23:37:08.216Z,13.10
2017-09-25T23:39:35.221Z,13.10
2017-09-25T23:42:01.492Z,13.10
2017-09-25T23:44:28.529Z,13.10
2017-09-25T23:46:54.731Z,13.10
2017-09-25T23:49:21.003Z,13.10
2017-09-25T23:51:48.013Z,13.10
2017-09-25T23:54:14.261Z,13.10
2017-09-25T23:56:40.485Z,13.20
2017-09-25T23:59:06.669Z,13.30
